createdAt,value
2022-10-05T00:01:22.474Z,5.07
2022-10-05T00:06:07.627Z,4.47
2022-10-05T00:10:52.166Z,4.43
2022-10-05T00:15:37.700Z,3.97
2022-10-05T00:20:27.636Z,3.87
2022-10-05T00:25:17.620Z,3.60
2022-10-05T00:30:03.954Z,2.13
2022-10-05T00:34:48.170Z,3.10
2022-10-05T00:39:31.837Z,3.17
2022-10-05T00:44:33.282Z,3.67
2022-10-05T00:49:29.538Z,2.87
2022-10-05T00:54:23.819Z,2.97
2022-10-05T00:59:18.751Z,2.17
2022-10-05T01:04:13.495Z,2.40
2022-10-05T01:09:06.405Z,2.67
2022-10-05T01:13:57.354Z,2.13
2022-10-05T01:18:48.617Z,2.17
2022-10-05T01:24:02.830Z,2.30
2022-10-05T01:28:56.765Z,1.90
2022-10-05T01:33:45.249Z,2.00
2022-10-05T01:38:45.785Z,1.60
2022-10-05T01:43:37.315Z,1.87
2022-10-05T01:48:30.051Z,1.30
2022-10-05T01:53:24.177Z,1.40
2022-10-05T01:58:21.476Z,1.10
2022-10-05T02:03:11.813Z,1.13
2022-10-05T02:08:01.387Z,1.77
2022-10-05T02:12:47.467Z,1.20
2022-10-05T02:17:43.553Z,1.37
2022-10-05T02:22:32.019Z,1.50
2022-10-05T02:27:23.128Z,1.53
2022-10-05T02:32:11.057Z,1.40
2022-10-05T02:37:08.701Z,1.23
2022-10-05T02:42:02.365Z,1.20
2022-10-05T02:46:57.031Z,0.73
2022-10-05T02:51:49.331Z,1.00
2022-10-05T02:56:38.897Z,0.90
2022-10-05T03:01:28.901Z,1.50
2022-10-05T03:06:19.839Z,1.17
2022-10-05T03:11:09.765Z,1.07
2022-10-05T03:16:05.846Z,1.20
2022-10-05T03:20:56.155Z,1.20
2022-10-05T03:26:07.271Z,1.10
2022-10-05T03:30:56.458Z,0.90
2022-10-05T03:35:51.766Z,0.77
2022-10-05T03:40:40.518Z,1.03
2022-10-05T03:45:31.132Z,1.27
2022-10-05T03:50:26.777Z,1.30
2022-10-05T03:55:18.641Z,1.10
2022-10-05T04:00:06.803Z,1.43
2022-10-05T04:04:57.101Z,1.13
2022-10-05T04:09:45.062Z,1.30
2022-10-05T04:14:32.254Z,2.10
2022-10-05T04:19:20.657Z,1.30
2022-10-05T04:24:12.639Z,1.70
2022-10-05T04:29:00.393Z,1.80
2022-10-05T04:33:47.570Z,2.10
2022-10-05T04:38:42.511Z,2.10
2022-10-05T04:43:37.499Z,1.77
2022-10-05T04:48:45.114Z,2.30
2022-10-05T04:53:34.930Z,2.10
2022-10-05T04:58:31.946Z,1.67
2022-10-05T05:03:42.840Z,1.30
2022-10-05T05:08:42.957Z,1.70
2022-10-05T05:13:51.840Z,2.40
2022-10-05T05:18:50.350Z,2.67
2022-10-05T05:23:42.154Z,2.23
2022-10-05T05:28:35.858Z,1.73
2022-10-05T05:33:24.359Z,2.50
2022-10-05T05:38:21.800Z,2.80
2022-10-05T05:43:13.554Z,2.57
2022-10-05T05:48:03.493Z,2.40
2022-10-05T05:52:53.006Z,2.90
2022-10-05T05:57:42.517Z,1.67
2022-10-05T06:02:30.571Z,2.60
2022-10-05T06:07:19.495Z,2.50
2022-10-05T06:12:09.857Z,2.27
2022-10-05T06:16:57.451Z,3.33
2022-10-05T06:21:45.912Z,3.67
2022-10-05T06:26:52.397Z,4.47
2022-10-05T06:32:04.272Z,3.80
2022-10-05T06:36:52.077Z,4.53
2022-10-05T06:41:48.514Z,3.83
2022-10-05T06:46:37.299Z,4.30
2022-10-05T06:51:28.389Z,3.83
2022-10-05T06:56:18.779Z,3.00
2022-10-05T07:01:10.823Z,2.77
2022-10-05T07:06:04.830Z,3.30
2022-10-05T07:11:05.232Z,2.70
2022-10-05T07:16:00.846Z,3.30
2022-10-05T07:20:52.005Z,2.90
2022-10-05T07:25:43.088Z,3.07
2022-10-05T07:30:28.082Z,3.50
2022-10-05T07:35:43.829Z,3.53
2022-10-05T07:40:33.972Z,3.70
2022-10-05T07:45:30.436Z,5.03
2022-10-05T07:50:21.134Z,9.40
2022-10-05T07:55:14.272Z,10.30
2022-10-05T08:00:01.994Z,6.63
2022-10-05T08:04:54.754Z,1.87
2022-10-05T08:09:42.427Z,1.60
2022-10-05T08:14:34.857Z,0.73
2022-10-05T08:19:23.710Z,1.67
2022-10-05T08:24:16.852Z,1.17
2022-10-05T08:29:13.806Z,1.90
2022-10-05T08:34:07.405Z,1.30
2022-10-05T08:38:54.891Z,1.10
2022-10-05T08:44:13.076Z,1.27
2022-10-05T08:49:46.859Z,0.70
2022-10-05T08:54:50.652Z,0.50
2022-10-05T08:59:59.067Z,0.80
2022-10-05T09:04:58.267Z,0.90
2022-10-05T09:10:20.349Z,0.68
2022-10-05T09:15:25.853Z,1.25
2022-10-05T09:20:23.315Z,2.10
2022-10-05T09:25:21.378Z,6.63
2022-10-05T09:30:30.604Z,1.85
2022-10-05T09:35:32.030Z,1.40
2022-10-05T09:41:01.109Z,1.98
2022-10-05T09:46:04.132Z,0.82
2022-10-05T09:51:11.196Z,0.90
2022-10-05T09:56:21.300Z,1.20
2022-10-05T10:01:44.892Z,1.08
2022-10-05T10:07:02.547Z,0.50
2022-10-05T10:12:14.846Z,0.70
2022-10-05T10:17:23.845Z,0.60
2022-10-05T10:22:42.954Z,0.30
2022-10-05T10:27:50.286Z,0.63
2022-10-05T10:33:18.229Z,0.40
2022-10-05T10:38:31.143Z,0.40
2022-10-05T10:43:41.296Z,0.60
2022-10-05T10:48:57.621Z,0.30
2022-10-05T10:54:28.366Z,0.35
2022-10-05T10:59:48.007Z,0.50
2022-10-05T11:05:03.717Z,0.40
2022-10-05T11:10:05.334Z,0.40
2022-10-05T11:15:01.369Z,0.40
2022-10-05T11:20:07.292Z,0.93
2022-10-05T11:25:07.973Z,0.73
2022-10-05T11:30:23.579Z,0.52
2022-10-05T11:35:34.113Z,0.40
2022-10-05T11:40:45.407Z,0.80
2022-10-05T11:45:40.215Z,0.85
2022-10-05T11:50:34.912Z,0.50
2022-10-05T11:55:25.784Z,0.50
2022-10-05T12:00:17.374Z,0.40
2022-10-05T12:05:07.954Z,0.40
2022-10-05T12:10:17.615Z,0.70
2022-10-05T12:15:08.570Z,0.90
2022-10-05T12:19:55.915Z,0.60
2022-10-05T12:25:03.425Z,0.80
2022-10-05T12:29:54.642Z,1.10
2022-10-05T12:34:50.583Z,0.88
2022-10-05T12:39:43.375Z,1.02
2022-10-05T12:44:44.941Z,0.80
2022-10-05T12:49:49.963Z,1.20
2022-10-05T12:54:47.378Z,1.05
2022-10-05T12:59:41.324Z,1.30
2022-10-05T13:04:38.578Z,1.60
2022-10-05T13:09:30.502Z,1.67
2022-10-05T13:14:23.888Z,2.03
2022-10-05T13:19:25.872Z,2.00
2022-10-05T13:24:17.486Z,2.80
2022-10-05T13:29:12.821Z,2.72
2022-10-05T13:34:13.332Z,2.45
2022-10-05T13:39:03.737Z,2.95
2022-10-05T13:43:56.387Z,3.53
2022-10-05T13:48:55.287Z,3.13
2022-10-05T13:53:46.540Z,4.85
2022-10-05T13:58:40.659Z,4.20
2022-10-05T14:03:35.049Z,3.20
2022-10-05T14:08:19.127Z,2.92
2022-10-05T14:13:10.657Z,3.25
2022-10-05T14:17:55.692Z,2.78
2022-10-05T14:22:43.146Z,2.85
2022-10-05T14:27:28.481Z,2.20
2022-10-05T14:32:16.235Z,2.03
2022-10-05T14:37:04.938Z,1.90
2022-10-05T14:41:51.844Z,1.75
2022-10-05T14:46:38.727Z,1.50
2022-10-05T14:51:31.983Z,1.70
2022-10-05T14:56:34.342Z,1.80
2022-10-05T15:01:26.628Z,2.20
2022-10-05T15:06:20.083Z,1.70
2022-10-05T15:11:09.236Z,1.65
2022-10-05T15:15:57.912Z,2.00
2022-10-05T15:20:53.221Z,1.40
2022-10-05T15:25:40.546Z,1.25
2022-10-05T15:30:24.708Z,1.30
2022-10-05T15:35:36.219Z,1.40
2022-10-05T15:40:27.066Z,1.20
2022-10-05T15:45:20.623Z,1.10
2022-10-05T15:50:15.760Z,1.13
2022-10-05T15:55:26.574Z,1.40
2022-10-05T16:00:14.142Z,1.52
2022-10-05T16:05:08.704Z,1.30
2022-10-05T16:09:58.323Z,1.25
2022-10-05T16:14:56.117Z,1.40
2022-10-05T16:19:47.910Z,1.50
2022-10-05T16:24:51.862Z,1.50
2022-10-05T16:29:48.802Z,1.63
2022-10-05T16:34:45.162Z,2.17
2022-10-05T16:39:51.689Z,1.85
2022-10-05T16:44:42.911Z,2.03
2022-10-05T16:49:39.669Z,1.88
2022-10-05T16:54:32.916Z,2.15
2022-10-05T16:59:49.502Z,1.77
2022-10-05T17:04:46.238Z,1.90
2022-10-05T17:10:11.467Z,2.50
2022-10-05T17:15:11.504Z,3.25
2022-10-05T17:20:10.843Z,4.25
2022-10-05T17:25:02.269Z,4.57
2022-10-05T17:29:51.985Z,4.90
2022-10-05T17:34:37.762Z,4.40
2022-10-05T17:39:24.492Z,4.93
2022-10-05T17:44:29.416Z,4.80
2022-10-05T17:49:29.190Z,4.97
2022-10-05T17:54:40.882Z,5.17
2022-10-05T17:59:40.493Z,4.87
2022-10-05T18:04:42.460Z,4.80
2022-10-05T18:09:51.983Z,3.83
2022-10-05T18:15:03.137Z,3.73
2022-10-05T18:20:15.232Z,3.20
2022-10-05T18:25:06.180Z,3.70
2022-10-05T18:30:05.648Z,2.40
2022-10-05T18:35:02.155Z,2.20
2022-10-05T18:40:01.039Z,3.50
2022-10-05T18:44:51.392Z,2.67
2022-10-05T18:49:49.740Z,3.23
2022-10-05T18:54:44.703Z,3.73
2022-10-05T18:59:45.693Z,3.90
2022-10-05T19:04:41.367Z,3.90
2022-10-05T19:09:44.272Z,2.33
2022-10-05T19:14:39.200Z,2.23
2022-10-05T19:19:45.262Z,5.27
2022-10-05T19:24:41.863Z,2.20
2022-10-05T19:29:40.718Z,3.87
2022-10-05T19:34:46.984Z,3.30
2022-10-05T19:39:39.237Z,1.90
2022-10-05T19:44:36.499Z,2.07
2022-10-05T19:49:49.690Z,2.07
2022-10-05T19:54:33.802Z,1.57
2022-10-05T19:59:21.648Z,1.77
2022-10-05T20:04:07.113Z,1.90
2022-10-05T20:08:53.783Z,2.57
2022-10-05T20:13:39.453Z,2.97
2022-10-05T20:19:05.330Z,3.10
2022-10-05T20:23:48.949Z,3.17
2022-10-05T20:28:34.663Z,5.17
2022-10-05T20:33:18.354Z,3.83
2022-10-05T20:38:01.995Z,3.60
2022-10-05T20:42:45.628Z,4.00
2022-10-05T20:47:30.741Z,3.70
2022-10-05T20:52:15.270Z,3.77
2022-10-05T20:56:59.098Z,3.87
2022-10-05T21:01:45.714Z,2.77
2022-10-05T21:06:30.580Z,5.43
2022-10-05T21:11:14.368Z,3.60
2022-10-05T21:15:58.577Z,3.57
2022-10-05T21:20:42.838Z,2.87
2022-10-05T21:25:28.277Z,2.83
2022-10-05T21:30:13.063Z,2.53
2022-10-05T21:34:57.466Z,2.27
2022-10-05T21:39:41.435Z,2.30
2022-10-05T21:44:26.324Z,1.93
2022-10-05T21:49:11.181Z,4.53
2022-10-05T21:53:57.053Z,1.90
2022-10-05T21:58:42.490Z,1.70
2022-10-05T22:03:27.775Z,2.23
2022-10-05T22:08:21.094Z,1.93
2022-10-05T22:13:05.701Z,1.30
2022-10-05T22:17:49.311Z,1.70
2022-10-05T22:22:34.462Z,2.07
2022-10-05T22:27:18.447Z,3.53
2022-10-05T22:32:01.982Z,2.97
2022-10-05T22:36:46.277Z,2.57
2022-10-05T22:41:31.167Z,2.53
2022-10-05T22:46:15.588Z,1.97
2022-10-05T22:50:59.120Z,3.37
2022-10-05T22:55:42.715Z,4.73
2022-10-05T23:00:40.361Z,2.10
2022-10-05T23:05:30.146Z,2.70
2022-10-05T23:10:15.461Z,2.03
2022-10-05T23:14:58.867Z,2.00
2022-10-05T23:19:43.658Z,2.00
2022-10-05T23:24:27.109Z,1.70
2022-10-05T23:29:10.838Z,2.90
2022-10-05T23:33:54.807Z,2.20
2022-10-05T23:38:39.639Z,2.20
2022-10-05T23:43:23.637Z,2.00
2022-10-05T23:48:07.134Z,1.50
2022-10-05T23:52:50.635Z,1.20
2022-10-05T23:57:35.490Z,1.30
